< < Back
Terminal Aerodrome Forecast


Current Version              Previous Versions:   1  2  3  4  5  6  7  8  9  

Terminal Aerodrome Forecast

654
FTUS42 KJAX 280238 AAA
TAFJAX
TAF AMD
KJAX 280238Z 2803/2824 10005KT P6SM BKN020 OVC050
     FM280600 08004KT P6SM VCSH OVC015
     FM281400 08009KT 6SM -SHRA OVC025=

Latest METAR

044
SAUS80 KWBC 280500
MTRJAX
METAR KJAX 280456Z 16008KT 9SM SCT034 BKN065 OVC095 19/17 A2986 RMK AO2
SLP111 T01890172 402440183


USA.gov is the U.S. government's official web portal to all federal, state and local government web resources and services.